sensor_id;sensor_type;location;lat;lon;timestamp;P1;durP1;ratioP1;P2;durP2;ratioP2
84381;SDS011;74572;51.834;5.820;2024-02-21T00:02:11;12.90;;;7.03;;
84381;SDS011;74572;51.834;5.820;2024-02-21T00:04:36;12.93;;;6.80;;
84381;SDS011;74572;51.834;5.820;2024-02-21T00:07:03;23.13;;;7.05;;
84381;SDS011;74572;51.834;5.820;2024-02-21T00:09:29;17.77;;;6.93;;
84381;SDS011;74572;51.834;5.820;2024-02-21T00:11:55;16.33;;;6.95;;
84381;SDS011;74572;51.834;5.820;2024-02-21T00:14:20;18.95;;;8.18;;
84381;SDS011;74572;51.834;5.820;2024-02-21T00:16:46;14.77;;;6.95;;
84381;SDS011;74572;51.834;5.820;2024-02-21T00:19:12;14.82;;;6.47;;
84381;SDS011;74572;51.834;5.820;2024-02-21T00:21:37;16.80;;;6.85;;
84381;SDS011;74572;51.834;5.820;2024-02-21T00:24:02;20.13;;;7.85;;
84381;SDS011;74572;51.834;5.820;2024-02-21T00:26:28;16.98;;;6.05;;
84381;SDS011;74572;51.834;5.820;2024-02-21T00:28:53;18.70;;;6.45;;
84381;SDS011;74572;51.834;5.820;2024-02-21T00:31:19;16.48;;;6.78;;
84381;SDS011;74572;51.834;5.820;2024-02-21T00:33:44;12.50;;;6.50;;
84381;SDS011;74572;51.834;5.820;2024-02-21T00:36:10;14.45;;;6.50;;
84381;SDS011;74572;51.834;5.820;2024-02-21T00:38:35;19.95;;;7.70;;
84381;SDS011;74572;51.834;5.820;2024-02-21T00:41:01;15.32;;;7.47;;
84381;SDS011;74572;51.834;5.820;2024-02-21T00:43:26;17.50;;;7.40;;
84381;SDS011;74572;51.834;5.820;2024-02-21T00:45:52;16.35;;;6.22;;
84381;SDS011;74572;51.834;5.820;2024-02-21T00:48:17;16.40;;;6.75;;
84381;SDS011;74572;51.834;5.820;2024-02-21T00:50:43;16.00;;;6.50;;
84381;SDS011;74572;51.834;5.820;2024-02-21T00:53:08;16.27;;;6.70;;
84381;SDS011;74572;51.834;5.820;2024-02-21T00:55:35;16.92;;;5.78;;
84381;SDS011;74572;51.834;5.820;2024-02-21T00:58:00;14.40;;;5.82;;
84381;SDS011;74572;51.834;5.820;2024-02-21T01:00:26;15.77;;;6.13;;
84381;SDS011;74572;51.834;5.820;2024-02-21T01:02:53;16.50;;;6.53;;
84381;SDS011;74572;51.834;5.820;2024-02-21T01:05:19;17.30;;;7.18;;
84381;SDS011;74572;51.834;5.820;2024-02-21T01:07:45;17.92;;;5.32;;
84381;SDS011;74572;51.834;5.820;2024-02-21T01:10:10;16.48;;;6.93;;
84381;SDS011;74572;51.834;5.820;2024-02-21T01:12:36;16.02;;;6.47;;
84381;SDS011;74572;51.834;5.820;2024-02-21T01:15:02;13.38;;;6.22;;
84381;SDS011;74572;51.834;5.820;2024-02-21T01:17:27;10.70;;;4.63;;
84381;SDS011;74572;51.834;5.820;2024-02-21T01:19:53;15.57;;;6.35;;
84381;SDS011;74572;51.834;5.820;2024-02-21T01:22:18;15.52;;;5.88;;
84381;SDS011;74572;51.834;5.820;2024-02-21T01:24:43;14.43;;;6.20;;
84381;SDS011;74572;51.834;5.820;2024-02-21T01:27:09;10.43;;;4.85;;
84381;SDS011;74572;51.834;5.820;2024-02-21T01:29:35;10.90;;;4.82;;
84381;SDS011;74572;51.834;5.820;2024-02-21T01:32:00;15.80;;;5.50;;
84381;SDS011;74572;51.834;5.820;2024-02-21T01:34:26;13.65;;;6.05;;
84381;SDS011;74572;51.834;5.820;2024-02-21T01:36:51;14.52;;;5.15;;
84381;SDS011;74572;51.834;5.820;2024-02-21T01:39:17;15.23;;;6.07;;
84381;SDS011;74572;51.834;5.820;2024-02-21T01:41:42;12.07;;;6.22;;
84381;SDS011;74572;51.834;5.820;2024-02-21T01:44:08;19.90;;;7.00;;
84381;SDS011;74572;51.834;5.820;2024-02-21T01:46:33;13.57;;;5.97;;
84381;SDS011;74572;51.834;5.820;2024-02-21T01:49:00;14.40;;;5.82;;
84381;SDS011;74572;51.834;5.820;2024-02-21T01:51:28;20.02;;;6.40;;
84381;SDS011;74572;51.834;5.820;2024-02-21T01:53:54;12.98;;;5.85;;
84381;SDS011;74572;51.834;5.820;2024-02-21T01:56:21;19.98;;;5.97;;
84381;SDS011;74572;51.834;5.820;2024-02-21T01:58:47;17.52;;;6.47;;
84381;SDS011;74572;51.834;5.820;2024-02-21T02:01:13;11.45;;;5.60;;
84381;SDS011;74572;51.834;5.820;2024-02-21T02:03:39;16.17;;;6.90;;
84381;SDS011;74572;51.834;5.820;2024-02-21T02:06:05;12.80;;;4.85;;
84381;SDS011;74572;51.834;5.820;2024-02-21T02:08:31;21.35;;;5.90;;
84381;SDS011;74572;51.834;5.820;2024-02-21T02:10:57;13.60;;;5.30;;
84381;SDS011;74572;51.834;5.820;2024-02-21T02:13:23;11.60;;;5.55;;
84381;SDS011;74572;51.834;5.820;2024-02-21T02:15:49;15.13;;;6.75;;
84381;SDS011;74572;51.834;5.820;2024-02-21T02:18:15;13.35;;;5.85;;
84381;SDS011;74572;51.834;5.820;2024-02-21T02:20:41;15.63;;;6.25;;
84381;SDS011;74572;51.834;5.820;2024-02-21T02:23:18;16.50;;;5.78;;
84381;SDS011;74572;51.834;5.820;2024-02-21T02:25:59;19.38;;;5.80;;
84381;SDS011;74572;51.834;5.820;2024-02-21T02:28:26;13.82;;;5.97;;
84381;SDS011;74572;51.834;5.820;2024-02-21T02:30:52;11.82;;;5.38;;
84381;SDS011;74572;51.834;5.820;2024-02-21T02:33:17;12.10;;;5.13;;
84381;SDS011;74572;51.834;5.820;2024-02-21T02:35:43;18.73;;;5.88;;
84381;SDS011;74572;51.834;5.820;2024-02-21T02:38:09;12.38;;;4.72;;
84381;SDS011;74572;51.834;5.820;2024-02-21T02:40:37;16.55;;;5.68;;
84381;SDS011;74572;51.834;5.820;2024-02-21T02:43:03;12.70;;;5.00;;
84381;SDS011;74572;51.834;5.820;2024-02-21T02:45:28;15.77;;;6.15;;
84381;SDS011;74572;51.834;5.820;2024-02-21T02:47:54;11.18;;;4.95;;
84381;SDS011;74572;51.834;5.820;2024-02-21T02:50:21;11.38;;;4.18;;
84381;SDS011;74572;51.834;5.820;2024-02-21T02:52:50;14.90;;;5.75;;
84381;SDS011;74572;51.834;5.820;2024-02-21T02:55:16;10.40;;;4.82;;
84381;SDS011;74572;51.834;5.820;2024-02-21T02:57:42;10.50;;;4.45;;
84381;SDS011;74572;51.834;5.820;2024-02-21T03:00:08;9.20;;;4.13;;
84381;SDS011;74572;51.834;5.820;2024-02-21T03:02:36;11.63;;;5.05;;
84381;SDS011;74572;51.834;5.820;2024-02-21T03:05:03;11.93;;;4.32;;
84381;SDS011;74572;51.834;5.820;2024-02-21T03:07:40;8.23;;;4.10;;
84381;SDS011;74572;51.834;5.820;2024-02-21T03:10:06;12.45;;;4.85;;
84381;SDS011;74572;51.834;5.820;2024-02-21T03:12:31;14.52;;;5.65;;
84381;SDS011;74572;51.834;5.820;2024-02-21T03:14:57;9.57;;;4.18;;
84381;SDS011;74572;51.834;5.820;2024-02-21T03:17:22;12.60;;;4.25;;
84381;SDS011;74572;51.834;5.820;2024-02-21T03:19:48;11.02;;;4.68;;
84381;SDS011;74572;51.834;5.820;2024-02-21T03:22:15;10.52;;;4.28;;
84381;SDS011;74572;51.834;5.820;2024-02-21T03:24:41;12.70;;;4.35;;
84381;SDS011;74572;51.834;5.820;2024-02-21T03:27:07;14.40;;;4.38;;
84381;SDS011;74572;51.834;5.820;2024-02-21T03:29:32;10.13;;;3.72;;
84381;SDS011;74572;51.834;5.820;2024-02-21T03:31:57;12.60;;;4.18;;
84381;SDS011;74572;51.834;5.820;2024-02-21T03:34:23;9.45;;;3.65;;
84381;SDS011;74572;51.834;5.820;2024-02-21T03:36:48;8.18;;;4.00;;
84381;SDS011;74572;51.834;5.820;2024-02-21T03:39:14;11.38;;;3.90;;
84381;SDS011;74572;51.834;5.820;2024-02-21T03:41:39;9.60;;;4.00;;
84381;SDS011;74572;51.834;5.820;2024-02-21T03:44:05;9.43;;;3.58;;
84381;SDS011;74572;51.834;5.820;2024-02-21T03:46:30;12.15;;;3.97;;
84381;SDS011;74572;51.834;5.820;2024-02-21T03:48:56;11.32;;;3.95;;
84381;SDS011;74572;51.834;5.820;2024-02-21T03:51:22;7.68;;;3.47;;
84381;SDS011;74572;51.834;5.820;2024-02-21T03:53:48;11.77;;;3.97;;
84381;SDS011;74572;51.834;5.820;2024-02-21T03:56:13;6.88;;;3.33;;
84381;SDS011;74572;51.834;5.820;2024-02-21T03:58:38;12.07;;;4.00;;
84381;SDS011;74572;51.834;5.820;2024-02-21T04:01:04;10.15;;;3.67;;
84381;SDS011;74572;51.834;5.820;2024-02-21T04:03:30;11.70;;;3.83;;
84381;SDS011;74572;51.834;5.820;2024-02-21T04:05:56;7.22;;;3.25;;
84381;SDS011;74572;51.834;5.820;2024-02-21T04:08:22;10.05;;;3.88;;
84381;SDS011;74572;51.834;5.820;2024-02-21T04:10:48;9.40;;;3.90;;
84381;SDS011;74572;51.834;5.820;2024-02-21T04:13:13;11.95;;;4.03;;
84381;SDS011;74572;51.834;5.820;2024-02-21T04:15:39;7.97;;;3.70;;
84381;SDS011;74572;51.834;5.820;2024-02-21T04:18:04;6.82;;;2.83;;
84381;SDS011;74572;51.834;5.820;2024-02-21T04:20:30;6.90;;;3.42;;
84381;SDS011;74572;51.834;5.820;2024-02-21T04:22:56;10.88;;;3.65;;
84381;SDS011;74572;51.834;5.820;2024-02-21T04:25:22;7.15;;;3.63;;
84381;SDS011;74572;51.834;5.820;2024-02-21T04:27:48;10.80;;;3.75;;
84381;SDS011;74572;51.834;5.820;2024-02-21T04:30:13;6.13;;;2.97;;
84381;SDS011;74572;51.834;5.820;2024-02-21T04:32:41;11.35;;;3.40;;
84381;SDS011;74572;51.834;5.820;2024-02-21T04:35:07;9.95;;;2.92;;
84381;SDS011;74572;51.834;5.820;2024-02-21T04:37:33;8.85;;;2.92;;
84381;SDS011;74572;51.834;5.820;2024-02-21T04:39:58;14.63;;;4.20;;
84381;SDS011;74572;51.834;5.820;2024-02-21T04:42:24;9.38;;;4.05;;
84381;SDS011;74572;51.834;5.820;2024-02-21T04:44:49;10.18;;;3.33;;
84381;SDS011;74572;51.834;5.820;2024-02-21T04:47:14;9.98;;;3.53;;
84381;SDS011;74572;51.834;5.820;2024-02-21T04:49:40;7.65;;;3.30;;
84381;SDS011;74572;51.834;5.820;2024-02-21T04:52:05;6.65;;;3.35;;
84381;SDS011;74572;51.834;5.820;2024-02-21T04:54:31;8.30;;;3.60;;
84381;SDS011;74572;51.834;5.820;2024-02-21T04:56:56;12.50;;;4.72;;
84381;SDS011;74572;51.834;5.820;2024-02-21T04:59:22;9.23;;;3.47;;
84381;SDS011;74572;51.834;5.820;2024-02-21T05:01:47;10.30;;;3.92;;
84381;SDS011;74572;51.834;5.820;2024-02-21T05:04:13;10.80;;;3.97;;
84381;SDS011;74572;51.834;5.820;2024-02-21T05:06:38;11.80;;;4.05;;
84381;SDS011;74572;51.834;5.820;2024-02-21T05:09:04;10.00;;;4.20;;
84381;SDS011;74572;51.834;5.820;2024-02-21T05:11:30;9.95;;;3.80;;
84381;SDS011;74572;51.834;5.820;2024-02-21T05:13:56;8.68;;;3.72;;
84381;SDS011;74572;51.834;5.820;2024-02-21T05:16:21;9.48;;;3.75;;
84381;SDS011;74572;51.834;5.820;2024-02-21T05:18:47;10.63;;;4.13;;
84381;SDS011;74572;51.834;5.820;2024-02-21T05:21:13;8.52;;;3.85;;
84381;SDS011;74572;51.834;5.820;2024-02-21T05:23:38;10.88;;;4.45;;
84381;SDS011;74572;51.834;5.820;2024-02-21T05:26:04;12.02;;;4.30;;
84381;SDS011;74572;51.834;5.820;2024-02-21T05:28:31;12.20;;;4.30;;
84381;SDS011;74572;51.834;5.820;2024-02-21T05:30:56;8.00;;;4.40;;
84381;SDS011;74572;51.834;5.820;2024-02-21T05:33:22;7.22;;;3.60;;
84381;SDS011;74572;51.834;5.820;2024-02-21T05:35:47;13.25;;;4.07;;
84381;SDS011;74572;51.834;5.820;2024-02-21T05:38:13;6.82;;;3.45;;
84381;SDS011;74572;51.834;5.820;2024-02-21T05:40:39;11.38;;;3.67;;
84381;SDS011;74572;51.834;5.820;2024-02-21T05:43:09;8.05;;;3.55;;
84381;SDS011;74572;51.834;5.820;2024-02-21T05:45:34;8.35;;;3.97;;
84381;SDS011;74572;51.834;5.820;2024-02-21T05:48:00;15.25;;;3.72;;
84381;SDS011;74572;51.834;5.820;2024-02-21T05:50:26;10.00;;;3.72;;
84381;SDS011;74572;51.834;5.820;2024-02-21T05:52:54;8.52;;;3.40;;
84381;SDS011;74572;51.834;5.820;2024-02-21T05:55:20;11.00;;;3.92;;
84381;SDS011;74572;51.834;5.820;2024-02-21T05:57:46;11.00;;;4.53;;
84381;SDS011;74572;51.834;5.820;2024-02-21T06:00:12;5.53;;;3.15;;
84381;SDS011;74572;51.834;5.820;2024-02-21T06:02:39;9.88;;;4.30;;
84381;SDS011;74572;51.834;5.820;2024-02-21T06:05:05;10.15;;;4.38;;
84381;SDS011;74572;51.834;5.820;2024-02-21T06:07:32;5.32;;;3.15;;
84381;SDS011;74572;51.834;5.820;2024-02-21T06:09:58;13.90;;;4.07;;
84381;SDS011;74572;51.834;5.820;2024-02-21T06:12:23;8.18;;;3.67;;
84381;SDS011;74572;51.834;5.820;2024-02-21T06:14:49;10.18;;;4.45;;
84381;SDS011;74572;51.834;5.820;2024-02-21T06:17:14;9.10;;;4.10;;
84381;SDS011;74572;51.834;5.820;2024-02-21T06:19:42;10.15;;;3.75;;
84381;SDS011;74572;51.834;5.820;2024-02-21T06:22:08;12.32;;;4.80;;
84381;SDS011;74572;51.834;5.820;2024-02-21T06:24:34;10.85;;;3.97;;
84381;SDS011;74572;51.834;5.820;2024-02-21T06:27:00;8.35;;;3.50;;
84381;SDS011;74572;51.834;5.820;2024-02-21T06:29:25;11.20;;;4.35;;
84381;SDS011;74572;51.834;5.820;2024-02-21T06:31:51;11.80;;;4.85;;
84381;SDS011;74572;51.834;5.820;2024-02-21T06:34:16;10.32;;;3.33;;
84381;SDS011;74572;51.834;5.820;2024-02-21T06:36:42;9.32;;;4.13;;
84381;SDS011;74572;51.834;5.820;2024-02-21T06:39:07;11.95;;;4.07;;
84381;SDS011;74572;51.834;5.820;2024-02-21T06:41:32;10.80;;;3.97;;
84381;SDS011;74572;51.834;5.820;2024-02-21T06:43:59;8.40;;;3.60;;
84381;SDS011;74572;51.834;5.820;2024-02-21T06:46:25;10.95;;;4.07;;
84381;SDS011;74572;51.834;5.820;2024-02-21T06:48:52;9.73;;;4.05;;
84381;SDS011;74572;51.834;5.820;2024-02-21T06:51:18;12.70;;;4.05;;
84381;SDS011;74572;51.834;5.820;2024-02-21T06:53:43;10.90;;;4.60;;
84381;SDS011;74572;51.834;5.820;2024-02-21T06:56:09;10.27;;;5.00;;
84381;SDS011;74572;51.834;5.820;2024-02-21T06:58:35;8.93;;;4.10;;
84381;SDS011;74572;51.834;5.820;2024-02-21T07:01:01;10.82;;;4.22;;
84381;SDS011;74572;51.834;5.820;2024-02-21T07:03:27;14.18;;;4.57;;
84381;SDS011;74572;51.834;5.820;2024-02-21T07:05:52;10.73;;;3.85;;
84381;SDS011;74572;51.834;5.820;2024-02-21T07:08:18;11.45;;;4.72;;
84381;SDS011;74572;51.834;5.820;2024-02-21T07:10:43;9.88;;;4.05;;
84381;SDS011;74572;51.834;5.820;2024-02-21T07:13:09;9.98;;;4.82;;
84381;SDS011;74572;51.834;5.820;2024-02-21T07:15:34;11.43;;;4.47;;
84381;SDS011;74572;51.834;5.820;2024-02-21T07:18:01;15.70;;;4.80;;
84381;SDS011;74572;51.834;5.820;2024-02-21T07:20:26;9.82;;;4.40;;
84381;SDS011;74572;51.834;5.820;2024-02-21T07:22:52;9.40;;;4.10;;
84381;SDS011;74572;51.834;5.820;2024-02-21T07:25:17;11.48;;;4.55;;
84381;SDS011;74572;51.834;5.820;2024-02-21T07:27:44;12.10;;;4.40;;
84381;SDS011;74572;51.834;5.820;2024-02-21T07:30:09;9.90;;;4.47;;
84381;SDS011;74572;51.834;5.820;2024-02-21T07:32:35;10.05;;;3.97;;
84381;SDS011;74572;51.834;5.820;2024-02-21T07:35:01;7.90;;;3.28;;
84381;SDS011;74572;51.834;5.820;2024-02-21T07:37:26;9.05;;;3.88;;
84381;SDS011;74572;51.834;5.820;2024-02-21T07:39:52;8.02;;;3.63;;
84381;SDS011;74572;51.834;5.820;2024-02-21T07:42:17;9.85;;;3.65;;
84381;SDS011;74572;51.834;5.820;2024-02-21T07:44:43;9.20;;;4.30;;
84381;SDS011;74572;51.834;5.820;2024-02-21T07:47:08;11.20;;;4.60;;
84381;SDS011;74572;51.834;5.820;2024-02-21T07:49:40;7.27;;;3.37;;
84381;SDS011;74572;51.834;5.820;2024-02-21T07:52:09;11.98;;;4.13;;
84381;SDS011;74572;51.834;5.820;2024-02-21T07:54:35;8.57;;;4.13;;
84381;SDS011;74572;51.834;5.820;2024-02-21T07:57:00;10.80;;;4.53;;
84381;SDS011;74572;51.834;5.820;2024-02-21T07:59:26;11.95;;;4.63;;
84381;SDS011;74572;51.834;5.820;2024-02-21T08:01:51;8.55;;;3.58;;
84381;SDS011;74572;51.834;5.820;2024-02-21T08:04:17;10.75;;;5.20;;
84381;SDS011;74572;51.834;5.820;2024-02-21T08:06:42;9.88;;;4.30;;
84381;SDS011;74572;51.834;5.820;2024-02-21T08:09:10;6.07;;;3.65;;
84381;SDS011;74572;51.834;5.820;2024-02-21T08:11:35;11.73;;;4.53;;
84381;SDS011;74572;51.834;5.820;2024-02-21T08:14:01;9.43;;;4.13;;
84381;SDS011;74572;51.834;5.820;2024-02-21T08:16:27;8.68;;;3.97;;
84381;SDS011;74572;51.834;5.820;2024-02-21T08:18:52;11.95;;;4.28;;
84381;SDS011;74572;51.834;5.820;2024-02-21T08:21:18;10.52;;;4.40;;
84381;SDS011;74572;51.834;5.820;2024-02-21T08:23:43;9.07;;;4.45;;
84381;SDS011;74572;51.834;5.820;2024-02-21T08:26:09;8.98;;;4.45;;
84381;SDS011;74572;51.834;5.820;2024-02-21T08:28:35;9.85;;;4.10;;
84381;SDS011;74572;51.834;5.820;2024-02-21T08:31:00;10.93;;;4.40;;
84381;SDS011;74572;51.834;5.820;2024-02-21T08:33:26;8.80;;;4.32;;
84381;SDS011;74572;51.834;5.820;2024-02-21T08:35:51;11.48;;;4.85;;
84381;SDS011;74572;51.834;5.820;2024-02-21T08:38:17;11.93;;;3.50;;
84381;SDS011;74572;51.834;5.820;2024-02-21T08:40:43;9.50;;;4.47;;
84381;SDS011;74572;51.834;5.820;2024-02-21T08:43:09;9.07;;;4.60;;
84381;SDS011;74572;51.834;5.820;2024-02-21T08:45:34;12.00;;;4.93;;
84381;SDS011;74572;51.834;5.820;2024-02-21T08:48:00;9.30;;;4.90;;
84381;SDS011;74572;51.834;5.820;2024-02-21T08:50:25;7.95;;;4.03;;
84381;SDS011;74572;51.834;5.820;2024-02-21T08:52:50;7.88;;;4.22;;
84381;SDS011;74572;51.834;5.820;2024-02-21T08:55:16;13.75;;;4.50;;
84381;SDS011;74572;51.834;5.820;2024-02-21T08:57:42;7.85;;;4.28;;
84381;SDS011;74572;51.834;5.820;2024-02-21T09:00:07;6.82;;;4.18;;
84381;SDS011;74572;51.834;5.820;2024-02-21T09:02:41;11.40;;;3.25;;
84381;SDS011;74572;51.834;5.820;2024-02-21T09:05:13;12.60;;;4.82;;
84381;SDS011;74572;51.834;5.820;2024-02-21T09:07:39;8.20;;;3.88;;
84381;SDS011;74572;51.834;5.820;2024-02-21T09:10:04;7.55;;;3.55;;
84381;SDS011;74572;51.834;5.820;2024-02-21T09:12:30;8.45;;;3.75;;
84381;SDS011;74572;51.834;5.820;2024-02-21T09:14:56;9.02;;;4.28;;
84381;SDS011;74572;51.834;5.820;2024-02-21T09:17:21;8.43;;;4.15;;
84381;SDS011;74572;51.834;5.820;2024-02-21T09:19:47;9.35;;;3.47;;
84381;SDS011;74572;51.834;5.820;2024-02-21T09:22:13;8.27;;;3.08;;
84381;SDS011;74572;51.834;5.820;2024-02-21T09:24:38;9.63;;;3.50;;
84381;SDS011;74572;51.834;5.820;2024-02-21T09:27:04;7.93;;;3.50;;
84381;SDS011;74572;51.834;5.820;2024-02-21T09:29:31;8.30;;;3.67;;
84381;SDS011;74572;51.834;5.820;2024-02-21T09:31:58;7.47;;;3.22;;
84381;SDS011;74572;51.834;5.820;2024-02-21T09:34:24;8.25;;;3.47;;
84381;SDS011;74572;51.834;5.820;2024-02-21T09:36:49;5.95;;;3.30;;
84381;SDS011;74572;51.834;5.820;2024-02-21T09:39:14;8.52;;;4.00;;
84381;SDS011;74572;51.834;5.820;2024-02-21T09:41:45;6.63;;;3.25;;
84381;SDS011;74572;51.834;5.820;2024-02-21T09:44:13;5.32;;;3.10;;
84381;SDS011;74572;51.834;5.820;2024-02-21T09:49:32;5.88;;;3.40;;
84381;SDS011;74572;51.834;5.820;2024-02-21T09:52:06;7.07;;;3.20;;
84381;SDS011;74572;51.834;5.820;2024-02-21T09:54:41;9.27;;;3.40;;
84381;SDS011;74572;51.834;5.820;2024-02-21T09:57:09;6.70;;;3.22;;
84381;SDS011;74572;51.834;5.820;2024-02-21T09:59:35;3.95;;;2.08;;
84381;SDS011;74572;51.834;5.820;2024-02-21T10:02:01;6.97;;;3.40;;
84381;SDS011;74572;51.834;5.820;2024-02-21T10:04:27;5.85;;;3.15;;
84381;SDS011;74572;51.834;5.820;2024-02-21T10:06:55;8.43;;;3.30;;
84381;SDS011;74572;51.834;5.820;2024-02-21T10:09:21;6.85;;;3.47;;
84381;SDS011;74572;51.834;5.820;2024-02-21T10:11:48;7.53;;;2.70;;
84381;SDS011;74572;51.834;5.820;2024-02-21T10:14:14;6.38;;;3.00;;
84381;SDS011;74572;51.834;5.820;2024-02-21T10:16:40;7.43;;;2.53;;
84381;SDS011;74572;51.834;5.820;2024-02-21T10:19:06;6.43;;;3.50;;
84381;SDS011;74572;51.834;5.820;2024-02-21T10:21:31;6.50;;;3.30;;
84381;SDS011;74572;51.834;5.820;2024-02-21T10:23:57;8.15;;;2.75;;
84381;SDS011;74572;51.834;5.820;2024-02-21T10:26:23;4.75;;;2.55;;
84381;SDS011;74572;51.834;5.820;2024-02-21T10:28:48;4.63;;;1.75;;
84381;SDS011;74572;51.834;5.820;2024-02-21T10:31:26;6.40;;;3.00;;
84381;SDS011;74572;51.834;5.820;2024-02-21T10:33:59;7.88;;;3.20;;
84381;SDS011;74572;51.834;5.820;2024-02-21T10:36:28;5.65;;;2.50;;
84381;SDS011;74572;51.834;5.820;2024-02-21T10:38:54;4.80;;;2.50;;
84381;SDS011;74572;51.834;5.820;2024-02-21T10:41:20;5.85;;;3.00;;
84381;SDS011;74572;51.834;5.820;2024-02-21T10:43:48;4.88;;;2.80;;
84381;SDS011;74572;51.834;5.820;2024-02-21T10:46:18;4.53;;;3.00;;
84381;SDS011;74572;51.834;5.820;2024-02-21T10:48:45;6.55;;;3.20;;
84381;SDS011;74572;51.834;5.820;2024-02-21T10:51:16;8.98;;;3.38;;
84381;SDS011;74572;51.834;5.820;2024-02-21T10:56:38;6.97;;;3.88;;
84381;SDS011;74572;51.834;5.820;2024-02-21T10:59:07;5.88;;;3.17;;
84381;SDS011;74572;51.834;5.820;2024-02-21T11:01:33;8.07;;;3.63;;
84381;SDS011;74572;51.834;5.820;2024-02-21T11:04:03;8.18;;;3.17;;
84381;SDS011;74572;51.834;5.820;2024-02-21T11:06:33;7.25;;;3.38;;
84381;SDS011;74572;51.834;5.820;2024-02-21T11:09:10;8.13;;;3.25;;
84381;SDS011;74572;51.834;5.820;2024-02-21T11:11:37;6.82;;;3.55;;
84381;SDS011;74572;51.834;5.820;2024-02-21T11:16:38;8.02;;;3.38;;
84381;SDS011;74572;51.834;5.820;2024-02-21T11:19:08;8.88;;;3.55;;
84381;SDS011;74572;51.834;5.820;2024-02-21T11:21:44;6.85;;;3.05;;
84381;SDS011;74572;51.834;5.820;2024-02-21T11:24:10;9.57;;;2.80;;
84381;SDS011;74572;51.834;5.820;2024-02-21T11:26:37;6.70;;;3.38;;
84381;SDS011;74572;51.834;5.820;2024-02-21T11:29:03;7.00;;;3.03;;
84381;SDS011;74572;51.834;5.820;2024-02-21T11:31:43;8.48;;;3.53;;
84381;SDS011;74572;51.834;5.820;2024-02-21T11:34:16;6.63;;;3.10;;
84381;SDS011;74572;51.834;5.820;2024-02-21T11:36:52;5.50;;;2.58;;
84381;SDS011;74572;51.834;5.820;2024-02-21T11:39:24;8.60;;;3.50;;
84381;SDS011;74572;51.834;5.820;2024-02-21T11:42:00;4.65;;;1.92;;
84381;SDS011;74572;51.834;5.820;2024-02-21T11:44:26;7.05;;;3.22;;
84381;SDS011;74572;51.834;5.820;2024-02-21T11:46:51;9.32;;;3.03;;
84381;SDS011;74572;51.834;5.820;2024-02-21T11:49:17;6.38;;;3.30;;
84381;SDS011;74572;51.834;5.820;2024-02-21T11:51:42;5.38;;;2.80;;
84381;SDS011;74572;51.834;5.820;2024-02-21T11:54:08;6.70;;;2.88;;
84381;SDS011;74572;51.834;5.820;2024-02-21T11:56:34;5.82;;;3.17;;
84381;SDS011;74572;51.834;5.820;2024-02-21T11:59:00;6.20;;;3.00;;
84381;SDS011;74572;51.834;5.820;2024-02-21T12:01:26;5.32;;;2.67;;
84381;SDS011;74572;51.834;5.820;2024-02-21T12:03:51;7.30;;;3.17;;
84381;SDS011;74572;51.834;5.820;2024-02-21T12:06:17;6.50;;;3.00;;
84381;SDS011;74572;51.834;5.820;2024-02-21T12:08:47;4.25;;;2.80;;
84381;SDS011;74572;51.834;5.820;2024-02-21T12:11:19;4.20;;;2.85;;
84381;SDS011;74572;51.834;5.820;2024-02-21T12:13:46;8.32;;;2.60;;
84381;SDS011;74572;51.834;5.820;2024-02-21T12:16:14;6.15;;;2.42;;
84381;SDS011;74572;51.834;5.820;2024-02-21T12:18:41;6.82;;;2.53;;
84381;SDS011;74572;51.834;5.820;2024-02-21T12:21:07;4.70;;;2.83;;
84381;SDS011;74572;51.834;5.820;2024-02-21T12:23:33;3.70;;;2.17;;
84381;SDS011;74572;51.834;5.820;2024-02-21T12:25:59;6.65;;;2.80;;
84381;SDS011;74572;51.834;5.820;2024-02-21T12:28:24;5.72;;;2.50;;
84381;SDS011;74572;51.834;5.820;2024-02-21T12:30:51;3.50;;;2.50;;
84381;SDS011;74572;51.834;5.820;2024-02-21T12:33:17;5.20;;;2.90;;
84381;SDS011;74572;51.834;5.820;2024-02-21T12:35:43;5.15;;;2.53;;
84381;SDS011;74572;51.834;5.820;2024-02-21T12:38:08;6.05;;;2.90;;
84381;SDS011;74572;51.834;5.820;2024-02-21T12:40:34;4.78;;;2.92;;
84381;SDS011;74572;51.834;5.820;2024-02-21T12:43:00;7.50;;;3.40;;
84381;SDS011;74572;51.834;5.820;2024-02-21T12:45:28;7.07;;;2.83;;
84381;SDS011;74572;51.834;5.820;2024-02-21T12:47:53;5.75;;;2.63;;
84381;SDS011;74572;51.834;5.820;2024-02-21T12:50:19;5.63;;;2.30;;
84381;SDS011;74572;51.834;5.820;2024-02-21T12:52:44;5.80;;;2.67;;
84381;SDS011;74572;51.834;5.820;2024-02-21T12:55:10;6.85;;;2.45;;
84381;SDS011;74572;51.834;5.820;2024-02-21T12:57:37;7.47;;;2.67;;
84381;SDS011;74572;51.834;5.820;2024-02-21T13:00:02;6.28;;;2.67;;
84381;SDS011;74572;51.834;5.820;2024-02-21T13:02:28;5.13;;;2.33;;
84381;SDS011;74572;51.834;5.820;2024-02-21T13:04:54;5.93;;;2.30;;
84381;SDS011;74572;51.834;5.820;2024-02-21T13:07:19;4.72;;;2.75;;
84381;SDS011;74572;51.834;5.820;2024-02-21T13:09:45;4.57;;;2.40;;
84381;SDS011;74572;51.834;5.820;2024-02-21T13:12:11;5.93;;;2.75;;
84381;SDS011;74572;51.834;5.820;2024-02-21T13:14:37;6.43;;;2.58;;
84381;SDS011;74572;51.834;5.820;2024-02-21T13:17:04;8.57;;;3.40;;
84381;SDS011;74572;51.834;5.820;2024-02-21T13:19:29;5.15;;;2.20;;
84381;SDS011;74572;51.834;5.820;2024-02-21T13:21:55;7.75;;;2.55;;
84381;SDS011;74572;51.834;5.820;2024-02-21T13:24:20;7.45;;;3.00;;
84381;SDS011;74572;51.834;5.820;2024-02-21T13:26:45;7.03;;;2.37;;
84381;SDS011;74572;51.834;5.820;2024-02-21T13:29:11;10.55;;;3.15;;
84381;SDS011;74572;51.834;5.820;2024-02-21T13:31:37;5.47;;;2.95;;
84381;SDS011;74572;51.834;5.820;2024-02-21T13:34:02;4.80;;;2.58;;
84381;SDS011;74572;51.834;5.820;2024-02-21T13:36:28;7.65;;;2.70;;
84381;SDS011;74572;51.834;5.820;2024-02-21T13:38:54;7.15;;;2.83;;
84381;SDS011;74572;51.834;5.820;2024-02-21T13:41:19;5.63;;;2.67;;
84381;SDS011;74572;51.834;5.820;2024-02-21T13:43:47;4.03;;;1.73;;
84381;SDS011;74572;51.834;5.820;2024-02-21T13:46:12;5.00;;;2.00;;
84381;SDS011;74572;51.834;5.820;2024-02-21T13:48:38;5.00;;;2.53;;
84381;SDS011;74572;51.834;5.820;2024-02-21T13:51:04;6.80;;;3.00;;
84381;SDS011;74572;51.834;5.820;2024-02-21T13:53:30;5.13;;;2.03;;
84381;SDS011;74572;51.834;5.820;2024-02-21T13:55:55;4.22;;;2.55;;
84381;SDS011;74572;51.834;5.820;2024-02-21T13:58:20;5.53;;;2.40;;
84381;SDS011;74572;51.834;5.820;2024-02-21T14:00:47;5.75;;;2.30;;
84381;SDS011;74572;51.834;5.820;2024-02-21T14:03:12;4.60;;;1.70;;
84381;SDS011;74572;51.834;5.820;2024-02-21T14:05:38;4.72;;;2.20;;
84381;SDS011;74572;51.834;5.820;2024-02-21T14:08:05;4.45;;;2.05;;
84381;SDS011;74572;51.834;5.820;2024-02-21T14:10:31;2.63;;;1.67;;
84381;SDS011;74572;51.834;5.820;2024-02-21T14:12:57;4.35;;;1.45;;
84381;SDS011;74572;51.834;5.820;2024-02-21T14:15:22;6.63;;;2.45;;
84381;SDS011;74572;51.834;5.820;2024-02-21T14:17:48;3.95;;;1.60;;
84381;SDS011;74572;51.834;5.820;2024-02-21T14:20:13;3.40;;;2.00;;
84381;SDS011;74572;51.834;5.820;2024-02-21T14:22:39;3.38;;;1.35;;
84381;SDS011;74572;51.834;5.820;2024-02-21T14:25:04;3.80;;;1.85;;
84381;SDS011;74572;51.834;5.820;2024-02-21T14:27:30;4.20;;;1.95;;
84381;SDS011;74572;51.834;5.820;2024-02-21T14:29:57;3.90;;;1.60;;
84381;SDS011;74572;51.834;5.820;2024-02-21T14:32:22;6.22;;;1.90;;
84381;SDS011;74572;51.834;5.820;2024-02-21T14:34:47;6.05;;;1.70;;
84381;SDS011;74572;51.834;5.820;2024-02-21T14:37:14;2.45;;;1.60;;
84381;SDS011;74572;51.834;5.820;2024-02-21T14:39:40;7.60;;;1.80;;
84381;SDS011;74572;51.834;5.820;2024-02-21T14:42:06;8.40;;;2.25;;
84381;SDS011;74572;51.834;5.820;2024-02-21T14:44:32;2.65;;;1.67;;
84381;SDS011;74572;51.834;5.820;2024-02-21T14:46:57;5.28;;;2.10;;